sensor_id;sensor_type;location;lat;lon;timestamp;pressure;altitude;pressure_sealevel;temperature;humidity
46015;BME280;36844;51.898;-0.874;2022-11-25T00:02:18;99130.72;;;17.68;
46015;BME280;36844;51.898;-0.874;2022-11-25T00:04:44;99132.34;;;17.65;
46015;BME280;36844;51.898;-0.874;2022-11-25T00:07:09;99133.50;;;17.64;
46015;BME280;36844;51.898;-0.874;2022-11-25T00:09:34;99133.50;;;17.64;
46015;BME280;36844;51.898;-0.874;2022-11-25T00:11:59;99135.13;;;17.62;
46015;BME280;36844;51.898;-0.874;2022-11-25T00:14:25;99130.16;;;17.60;
46015;BME280;36844;51.898;-0.874;2022-11-25T00:16:50;99135.53;;;17.60;
46015;BME280;36844;51.898;-0.874;2022-11-25T00:19:15;99137.16;;;17.58;
46015;BME280;36844;51.898;-0.874;2022-11-25T00:21:41;99142.53;;;17.58;
46015;BME280;36844;51.898;-0.874;2022-11-25T00:24:06;99138.72;;;17.55;
46015;BME280;36844;51.898;-0.874;2022-11-25T00:26:33;99152.16;;;17.55;
46015;BME280;36844;51.898;-0.874;2022-11-25T00:28:59;99155.31;;;17.54;
46015;BME280;36844;51.898;-0.874;2022-11-25T00:31:26;99153.78;;;17.53;
46015;BME280;36844;51.898;-0.874;2022-11-25T00:33:51;99153.03;;;17.52;
46015;BME280;36844;51.898;-0.874;2022-11-25T00:36:21;99160.78;;;17.50;
46015;BME280;36844;51.898;-0.874;2022-11-25T00:38:46;99157.75;;;17.48;
46015;BME280;36844;51.898;-0.874;2022-11-25T00:41:12;99161.66;;;17.47;
46015;BME280;36844;51.898;-0.874;2022-11-25T00:43:55;99164.34;;;17.47;
46015;BME280;36844;51.898;-0.874;2022-11-25T00:46:40;99171.75;;;17.43;
46015;BME280;36844;51.898;-0.874;2022-11-25T00:49:05;99164.84;;;17.42;
46015;BME280;36844;51.898;-0.874;2022-11-25T00:51:31;99174.06;;;17.41;
46015;BME280;36844;51.898;-0.874;2022-11-25T00:53:56;99178.69;;;17.41;
46015;BME280;36844;51.898;-0.874;2022-11-25T00:56:21;99181.84;;;17.39;
46015;BME280;36844;51.898;-0.874;2022-11-25T00:58:47;99187.22;;;17.39;
46015;BME280;36844;51.898;-0.874;2022-11-25T01:01:13;99180.31;;;17.38;
46015;BME280;36844;51.898;-0.874;2022-11-25T01:03:38;99186.84;;;17.37;
46015;BME280;36844;51.898;-0.874;2022-11-25T01:06:04;99185.31;;;17.36;
46015;BME280;36844;51.898;-0.874;2022-11-25T01:08:30;99195.78;;;17.34;
46015;BME280;36844;51.898;-0.874;2022-11-25T01:11:02;99201.16;;;17.34;
46015;BME280;36844;51.898;-0.874;2022-11-25T01:13:28;99204.25;;;17.33;
46015;BME280;36844;51.898;-0.874;2022-11-25T01:15:53;99202.78;;;17.32;
46015;BME280;36844;51.898;-0.874;2022-11-25T01:18:18;99201.25;;;17.31;
46015;BME280;36844;51.898;-0.874;2022-11-25T01:20:44;99205.09;;;17.30;
46015;BME280;36844;51.898;-0.874;2022-11-25T01:23:09;99209.72;;;17.29;
46015;BME280;36844;51.898;-0.874;2022-11-25T01:25:37;99213.63;;;17.28;
46015;BME280;36844;51.898;-0.874;2022-11-25T01:28:03;99216.72;;;17.27;
46015;BME280;36844;51.898;-0.874;2022-11-25T01:30:28;99220.56;;;17.26;
46015;BME280;36844;51.898;-0.874;2022-11-25T01:32:54;99219.06;;;17.25;
46015;BME280;36844;51.898;-0.874;2022-11-25T01:35:19;99224.09;;;17.23;
46015;BME280;36844;51.898;-0.874;2022-11-25T01:37:44;99242.94;;;17.23;
46015;BME280;36844;51.898;-0.874;2022-11-25T01:40:09;99243.38;;;17.21;
46015;BME280;36844;51.898;-0.874;2022-11-25T01:42:37;99238.41;;;17.20;
46015;BME280;36844;51.898;-0.874;2022-11-25T01:45:19;99240.34;;;17.19;
46015;BME280;36844;51.898;-0.874;2022-11-25T01:47:47;99238.81;;;17.18;
46015;BME280;36844;51.898;-0.874;2022-11-25T01:50:12;99245.38;;;17.17;
46015;BME280;36844;51.898;-0.874;2022-11-25T01:52:40;99252.72;;;17.17;
46015;BME280;36844;51.898;-0.874;2022-11-25T01:55:18;99253.09;;;17.15;
46015;BME280;36844;51.898;-0.874;2022-11-25T02:00:10;99266.97;;;17.14;
46015;BME280;36844;51.898;-0.874;2022-11-25T02:02:35;99262.03;;;17.12;
46015;BME280;36844;51.898;-0.874;2022-11-25T02:05:01;99272.78;;;17.12;
46015;BME280;36844;51.898;-0.874;2022-11-25T02:07:31;99262.41;;;17.11;
46015;BME280;36844;51.898;-0.874;2022-11-25T02:09:58;99270.91;;;17.09;
46015;BME280;36844;51.898;-0.874;2022-11-25T02:12:23;99274.78;;;17.08;
46015;BME280;36844;51.898;-0.874;2022-11-25T02:14:49;99277.47;;;17.08;
46015;BME280;36844;51.898;-0.874;2022-11-25T02:17:15;99282.50;;;17.06;
46015;BME280;36844;51.898;-0.874;2022-11-25T02:22:14;99286.38;;;17.05;
46015;BME280;36844;51.898;-0.874;2022-11-25T02:24:44;99285.63;;;17.05;
46015;BME280;36844;51.898;-0.874;2022-11-25T02:27:09;99286.78;;;17.04;
46015;BME280;36844;51.898;-0.874;2022-11-25T02:29:35;99297.97;;;17.02;
46015;BME280;36844;51.898;-0.874;2022-11-25T02:32:00;99303.34;;;17.02;
46015;BME280;36844;51.898;-0.874;2022-11-25T02:34:26;99312.59;;;17.01;
46015;BME280;36844;51.898;-0.874;2022-11-25T02:36:51;99308.38;;;17.00;
46015;BME280;36844;51.898;-0.874;2022-11-25T02:39:16;99318.38;;;17.00;
46015;BME280;36844;51.898;-0.874;2022-11-25T02:41:43;99327.59;;;16.99;
46015;BME280;36844;51.898;-0.874;2022-11-25T02:44:09;99324.16;;;16.98;
46015;BME280;36844;51.898;-0.874;2022-11-25T02:46:34;99337.28;;;16.96;
46015;BME280;36844;51.898;-0.874;2022-11-25T02:49:00;99341.13;;;16.95;
46015;BME280;36844;51.898;-0.874;2022-11-25T02:51:26;99348.44;;;16.95;
46015;BME280;36844;51.898;-0.874;2022-11-25T02:53:52;99352.31;;;16.94;
46015;BME280;36844;51.898;-0.874;2022-11-25T02:56:20;99356.94;;;16.93;
46015;BME280;36844;51.898;-0.874;2022-11-25T02:58:45;99360.78;;;16.92;
46015;BME280;36844;51.898;-0.874;2022-11-25T03:01:10;99356.59;;;16.91;
46015;BME280;36844;51.898;-0.874;2022-11-25T03:03:36;99363.88;;;16.91;
46015;BME280;36844;51.898;-0.874;2022-11-25T03:06:01;99375.06;;;16.89;
46015;BME280;36844;51.898;-0.874;2022-11-25T03:08:26;99374.28;;;16.89;
46015;BME280;36844;51.898;-0.874;2022-11-25T03:10:52;99368.16;;;16.88;
46015;BME280;36844;51.898;-0.874;2022-11-25T03:13:17;99374.72;;;16.87;
46015;BME280;36844;51.898;-0.874;2022-11-25T03:15:42;99373.94;;;16.87;
46015;BME280;36844;51.898;-0.874;2022-11-25T03:18:07;99374.38;;;16.85;
46015;BME280;36844;51.898;-0.874;2022-11-25T03:20:33;99377.06;;;16.85;
46015;BME280;36844;51.898;-0.874;2022-11-25T03:22:59;99383.59;;;16.84;
46015;BME280;36844;51.898;-0.874;2022-11-25T03:25:24;99379.41;;;16.83;
46015;BME280;36844;51.898;-0.874;2022-11-25T03:27:49;99384.00;;;16.83;
46015;BME280;36844;51.898;-0.874;2022-11-25T03:30:19;99385.19;;;16.82;
46015;BME280;36844;51.898;-0.874;2022-11-25T03:32:45;99398.25;;;16.79;
46015;BME280;36844;51.898;-0.874;2022-11-25T03:35:10;99396.75;;;16.78;
46015;BME280;36844;51.898;-0.874;2022-11-25T03:37:36;99403.63;;;16.79;
46015;BME280;36844;51.898;-0.874;2022-11-25T03:40:02;99405.25;;;16.77;
46015;BME280;36844;51.898;-0.874;2022-11-25T03:42:27;99409.84;;;16.76;
46015;BME280;36844;51.898;-0.874;2022-11-25T03:44:52;99417.91;;;16.76;
46015;BME280;36844;51.898;-0.874;2022-11-25T03:47:18;99422.53;;;16.76;
46015;BME280;36844;51.898;-0.874;2022-11-25T03:49:43;99434.47;;;16.75;
46015;BME280;36844;51.898;-0.874;2022-11-25T03:52:08;99436.41;;;16.74;
46015;BME280;36844;51.898;-0.874;2022-11-25T03:54:33;99442.16;;;16.73;
46015;BME280;36844;51.898;-0.874;2022-11-25T03:56:59;99438.72;;;16.72;
46015;BME280;36844;51.898;-0.874;2022-11-25T03:59:24;99446.03;;;16.72;
46015;BME280;36844;51.898;-0.874;2022-11-25T04:01:49;99461.41;;;16.71;
46015;BME280;36844;51.898;-0.874;2022-11-25T04:04:14;99475.25;;;16.70;
46015;BME280;36844;51.898;-0.874;2022-11-25T04:06:40;99477.94;;;16.70;
46015;BME280;36844;51.898;-0.874;2022-11-25T04:09:06;99473.72;;;16.69;
46015;BME280;36844;51.898;-0.874;2022-11-25T04:11:31;99479.09;;;16.69;
46015;BME280;36844;51.898;-0.874;2022-11-25T04:14:15;99474.16;;;16.67;
46015;BME280;36844;51.898;-0.874;2022-11-25T04:16:40;99486.06;;;16.66;
46015;BME280;36844;51.898;-0.874;2022-11-25T04:19:05;99497.97;;;16.65;
46015;BME280;36844;51.898;-0.874;2022-11-25T04:21:31;99505.28;;;16.65;
46015;BME280;36844;51.898;-0.874;2022-11-25T04:23:56;99506.47;;;16.64;
46015;BME280;36844;51.898;-0.874;2022-11-25T04:26:21;99508.38;;;16.63;
46015;BME280;36844;51.898;-0.874;2022-11-25T04:28:46;99512.25;;;16.62;
46015;BME280;36844;51.898;-0.874;2022-11-25T04:31:12;99516.84;;;16.62;
46015;BME280;36844;51.898;-0.874;2022-11-25T04:33:37;99518.00;;;16.61;
46015;BME280;36844;51.898;-0.874;2022-11-25T04:36:02;99524.56;;;16.60;
46015;BME280;36844;51.898;-0.874;2022-11-25T04:38:27;99529.94;;;16.60;
46015;BME280;36844;51.898;-0.874;2022-11-25T04:40:53;99531.88;;;16.59;
46015;BME280;36844;51.898;-0.874;2022-11-25T04:43:18;99533.03;;;16.58;
46015;BME280;36844;51.898;-0.874;2022-11-25T04:45:44;99537.66;;;16.58;
46015;BME280;36844;51.898;-0.874;2022-11-25T04:48:10;99540.34;;;16.58;
46015;BME280;36844;51.898;-0.874;2022-11-25T04:50:35;99546.88;;;16.57;
46015;BME280;36844;51.898;-0.874;2022-11-25T04:53:00;99558.81;;;16.56;
46015;BME280;36844;51.898;-0.874;2022-11-25T04:55:25;99560.72;;;16.55;
46015;BME280;36844;51.898;-0.874;2022-11-25T04:57:51;99576.09;;;16.55;
46015;BME280;36844;51.898;-0.874;2022-11-25T05:00:16;99580.72;;;16.54;
46015;BME280;36844;51.898;-0.874;2022-11-25T05:02:41;99577.66;;;16.52;
46015;BME280;36844;51.898;-0.874;2022-11-25T05:05:07;99594.53;;;16.53;
46015;BME280;36844;51.898;-0.874;2022-11-25T05:07:32;99599.16;;;16.52;
46015;BME280;36844;51.898;-0.874;2022-11-25T05:09:57;99598.41;;;16.52;
46015;BME280;36844;51.898;-0.874;2022-11-25T05:12:23;99606.09;;;16.50;
46015;BME280;36844;51.898;-0.874;2022-11-25T05:14:49;99614.94;;;16.50;
46015;BME280;36844;51.898;-0.874;2022-11-25T05:17:16;99619.94;;;16.48;
46015;BME280;36844;51.898;-0.874;2022-11-25T05:19:42;99621.13;;;16.47;
46015;BME280;36844;51.898;-0.874;2022-11-25T05:22:11;99633.78;;;16.47;
46015;BME280;36844;51.898;-0.874;2022-11-25T05:24:36;99633.78;;;16.47;
46015;BME280;36844;51.898;-0.874;2022-11-25T05:27:02;99629.56;;;16.46;
46015;BME280;36844;51.898;-0.874;2022-11-25T05:29:27;99636.13;;;16.45;
46015;BME280;36844;51.898;-0.874;2022-11-25T05:31:52;99636.53;;;16.43;
46015;BME280;36844;51.898;-0.874;2022-11-25T05:34:17;99639.97;;;16.44;
46015;BME280;36844;51.898;-0.874;2022-11-25T05:36:43;99648.03;;;16.44;
46015;BME280;36844;51.898;-0.874;2022-11-25T05:39:08;99656.50;;;16.42;
46015;BME280;36844;51.898;-0.874;2022-11-25T05:41:33;99661.88;;;16.42;
46015;BME280;36844;51.898;-0.874;2022-11-25T05:43:58;99674.53;;;16.42;
46015;BME280;36844;51.898;-0.874;2022-11-25T05:46:23;99683.78;;;16.41;
46015;BME280;36844;51.898;-0.874;2022-11-25T05:48:51;99691.06;;;16.40;
46015;BME280;36844;51.898;-0.874;2022-11-25T05:51:17;99693.00;;;16.40;
46015;BME280;36844;51.898;-0.874;2022-11-25T05:53:42;99709.13;;;16.40;
46015;BME280;36844;51.898;-0.874;2022-11-25T05:56:08;99712.97;;;16.39;
46015;BME280;36844;51.898;-0.874;2022-11-25T05:58:33;99715.28;;;16.37;
46015;BME280;36844;51.898;-0.874;2022-11-25T06:00:59;99720.25;;;16.38;
46015;BME280;36844;51.898;-0.874;2022-11-25T06:03:24;99727.97;;;16.36;
46015;BME280;36844;51.898;-0.874;2022-11-25T06:05:50;99736.44;;;16.35;
46015;BME280;36844;51.898;-0.874;2022-11-25T06:08:15;99747.16;;;16.35;
46015;BME280;36844;51.898;-0.874;2022-11-25T06:10:40;99755.22;;;16.35;
46015;BME280;36844;51.898;-0.874;2022-11-25T06:13:06;99753.69;;;16.34;
46015;BME280;36844;51.898;-0.874;2022-11-25T06:15:31;99761.75;;;16.34;
46015;BME280;36844;51.898;-0.874;2022-11-25T06:17:57;99758.28;;;16.33;
46015;BME280;36844;51.898;-0.874;2022-11-25T06:20:22;99771.00;;;16.33;
46015;BME280;36844;51.898;-0.874;2022-11-25T06:22:47;99774.84;;;16.32;
46015;BME280;36844;51.898;-0.874;2022-11-25T06:25:12;99781.38;;;16.31;
46015;BME280;36844;51.898;-0.874;2022-11-25T06:27:37;99795.94;;;16.30;
46015;BME280;36844;51.898;-0.874;2022-11-25T06:30:03;99797.88;;;16.29;
46015;BME280;36844;51.898;-0.874;2022-11-25T06:32:28;99800.56;;;16.29;
46015;BME280;36844;51.898;-0.874;2022-11-25T06:34:53;99805.19;;;16.29;
46015;BME280;36844;51.898;-0.874;2022-11-25T06:37:19;99811.72;;;16.28;
46015;BME280;36844;51.898;-0.874;2022-11-25T06:39:44;99818.25;;;16.27;
46015;BME280;36844;51.898;-0.874;2022-11-25T06:42:10;99829.78;;;16.27;
46015;BME280;36844;51.898;-0.874;2022-11-25T06:44:35;99829.00;;;16.27;
46015;BME280;36844;51.898;-0.874;2022-11-25T06:47:00;99838.97;;;16.26;
46015;BME280;36844;51.898;-0.874;2022-11-25T06:49:25;99842.44;;;16.27;
46015;BME280;36844;51.898;-0.874;2022-11-25T06:51:52;99846.66;;;16.28;
46015;BME280;36844;51.898;-0.874;2022-11-25T06:54:17;99852.81;;;16.28;
46015;BME280;36844;51.898;-0.874;2022-11-25T06:56:43;99856.97;;;16.29;
46015;BME280;36844;51.898;-0.874;2022-11-25T06:59:08;99863.88;;;16.30;
46015;BME280;36844;51.898;-0.874;2022-11-25T07:01:33;99864.66;;;16.31;
46015;BME280;36844;51.898;-0.874;2022-11-25T07:04:00;99862.34;;;16.33;
46015;BME280;36844;51.898;-0.874;2022-11-25T07:06:26;99880.75;;;16.34;
46015;BME280;36844;51.898;-0.874;2022-11-25T07:08:51;99881.88;;;16.37;
46015;BME280;36844;51.898;-0.874;2022-11-25T07:11:18;99882.25;;;16.39;
46015;BME280;36844;51.898;-0.874;2022-11-25T07:13:44;99894.88;;;16.42;
46015;BME280;36844;51.898;-0.874;2022-11-25T07:16:10;99895.25;;;16.44;
46015;BME280;36844;51.898;-0.874;2022-11-25T07:18:36;99899.84;;;16.47;
46015;BME280;36844;51.898;-0.874;2022-11-25T07:21:07;99914.03;;;16.51;
46015;BME280;36844;51.898;-0.874;2022-11-25T07:23:35;99912.06;;;16.55;
46015;BME280;36844;51.898;-0.874;2022-11-25T07:26:01;99921.25;;;16.57;
46015;BME280;36844;51.898;-0.874;2022-11-25T07:28:27;99938.88;;;16.62;
46015;BME280;36844;51.898;-0.874;2022-11-25T07:30:52;99938.06;;;16.65;
46015;BME280;36844;51.898;-0.874;2022-11-25T07:33:17;99945.38;;;16.68;
46015;BME280;36844;51.898;-0.874;2022-11-25T07:35:42;99958.38;;;16.73;
46015;BME280;36844;51.898;-0.874;2022-11-25T07:38:08;99972.56;;;16.77;
46015;BME280;36844;51.898;-0.874;2022-11-25T07:40:33;99969.81;;;16.80;
46015;BME280;36844;51.898;-0.874;2022-11-25T07:42:58;99969.78;;;16.84;
46015;BME280;36844;51.898;-0.874;2022-11-25T07:45:23;99987.44;;;16.89;
46015;BME280;36844;51.898;-0.874;2022-11-25T07:47:49;99989.31;;;16.92;
46015;BME280;36844;51.898;-0.874;2022-11-25T07:50:14;100009.66;;;16.96;
46015;BME280;36844;51.898;-0.874;2022-11-25T07:52:40;100011.94;;;16.98;
46015;BME280;36844;51.898;-0.874;2022-11-25T07:55:06;100021.50;;;17.02;
46015;BME280;36844;51.898;-0.874;2022-11-25T07:57:31;100035.31;;;17.04;
46015;BME280;36844;51.898;-0.874;2022-11-25T07:59:56;100041.81;;;17.07;
46015;BME280;36844;51.898;-0.874;2022-11-25T08:02:21;100059.47;;;17.11;
46015;BME280;36844;51.898;-0.874;2022-11-25T08:04:46;100066.41;;;17.12;
46015;BME280;36844;51.898;-0.874;2022-11-25T08:07:12;100068.28;;;17.15;
46015;BME280;36844;51.898;-0.874;2022-11-25T08:09:37;100080.94;;;17.18;
46015;BME280;36844;51.898;-0.874;2022-11-25T08:12:02;100087.44;;;17.21;
46015;BME280;36844;51.898;-0.874;2022-11-25T08:14:27;100090.50;;;17.23;
46015;BME280;36844;51.898;-0.874;2022-11-25T08:16:53;100090.88;;;17.25;
46015;BME280;36844;51.898;-0.874;2022-11-25T08:19:18;100092.03;;;17.27;
46015;BME280;36844;51.898;-0.874;2022-11-25T08:21:43;100095.81;;;17.30;
46015;BME280;36844;51.898;-0.874;2022-11-25T08:24:12;100112.38;;;17.32;
46015;BME280;36844;51.898;-0.874;2022-11-25T08:26:38;100120.78;;;17.34;
46015;BME280;36844;51.898;-0.874;2022-11-25T08:29:04;100125.03;;;17.35;
46015;BME280;36844;51.898;-0.874;2022-11-25T08:31:34;100133.44;;;17.37;
46015;BME280;36844;51.898;-0.874;2022-11-25T08:34:00;100138.44;;;17.38;
46015;BME280;36844;51.898;-0.874;2022-11-25T08:36:26;100150.75;;;17.39;
46015;BME280;36844;51.898;-0.874;2022-11-25T08:38:52;100155.72;;;17.41;
46015;BME280;36844;51.898;-0.874;2022-11-25T08:41:22;100159.16;;;17.41;
46015;BME280;36844;51.898;-0.874;2022-11-25T08:43:47;100161.50;;;17.43;
46015;BME280;36844;51.898;-0.874;2022-11-25T08:46:15;100162.97;;;17.44;
46015;BME280;36844;51.898;-0.874;2022-11-25T08:48:41;100173.38;;;17.45;
46015;BME280;36844;51.898;-0.874;2022-11-25T08:51:07;100176.06;;;17.45;
46015;BME280;36844;51.898;-0.874;2022-11-25T08:53:33;100184.91;;;17.46;
46015;BME280;36844;51.898;-0.874;2022-11-25T08:55:58;100191.84;;;17.47;
46015;BME280;36844;51.898;-0.874;2022-11-25T08:58:24;100196.44;;;17.46;
46015;BME280;36844;51.898;-0.874;2022-11-25T09:00:49;100205.31;;;17.47;
46015;BME280;36844;51.898;-0.874;2022-11-25T09:03:14;100209.91;;;17.46;
46015;BME280;36844;51.898;-0.874;2022-11-25T09:05:40;100208.00;;;17.47;
46015;BME280;36844;51.898;-0.874;2022-11-25T09:08:06;100216.06;;;17.47;
46015;BME280;36844;51.898;-0.874;2022-11-25T09:10:32;100222.22;;;17.47;
46015;BME280;36844;51.898;-0.874;2022-11-25T09:12:57;100228.31;;;17.48;
46015;BME280;36844;51.898;-0.874;2022-11-25T09:15:22;100235.69;;;17.47;
46015;BME280;36844;51.898;-0.874;2022-11-25T09:17:48;100234.47;;;17.48;
46015;BME280;36844;51.898;-0.874;2022-11-25T09:20:13;100241.06;;;17.47;
46015;BME280;36844;51.898;-0.874;2022-11-25T09:22:38;100250.66;;;17.48;
46015;BME280;36844;51.898;-0.874;2022-11-25T09:25:04;100250.66;;;17.48;
46015;BME280;36844;51.898;-0.874;2022-11-25T09:27:29;100249.88;;;17.48;
46015;BME280;36844;51.898;-0.874;2022-11-25T09:29:55;100249.16;;;17.47;
46015;BME280;36844;51.898;-0.874;2022-11-25T09:32:20;100256.81;;;17.49;
46015;BME280;36844;51.898;-0.874;2022-11-25T09:34:45;100258.72;;;17.48;
46015;BME280;36844;51.898;-0.874;2022-11-25T09:37:10;100261.41;;;17.48;
46015;BME280;36844;51.898;-0.874;2022-11-25T09:39:36;100258.72;;;17.48;
46015;BME280;36844;51.898;-0.874;2022-11-25T09:48:00;100280.69;;;17.47;
46015;BME280;36844;51.898;-0.874;2022-11-25T09:55:38;100300.66;;;17.49;
46015;BME280;36844;51.898;-0.874;2022-11-25T10:00:42;100303.69;;;17.51;
46015;BME280;36844;51.898;-0.874;2022-11-25T10:05:34;100308.69;;;17.53;
46015;BME280;36844;51.898;-0.874;2022-11-25T10:08:44;100316.41;;;17.54;
46015;BME280;36844;51.898;-0.874;2022-11-25T10:10:52;100314.47;;;17.55;
46015;BME280;36844;51.898;-0.874;2022-11-25T10:13:21;100315.97;;;17.56;
46015;BME280;36844;51.898;-0.874;2022-11-25T10:15:49;100321.00;;;17.57;
46015;BME280;36844;51.898;-0.874;2022-11-25T10:18:18;100325.22;;;17.58;
46015;BME280;36844;51.898;-0.874;2022-11-25T10:20:45;100321.34;;;17.59;
46015;BME280;36844;51.898;-0.874;2022-11-25T10:23:34;100315.94;;;17.59;
46015;BME280;36844;51.898;-0.874;2022-11-25T10:26:00;100324.44;;;17.61;
46015;BME280;36844;51.898;-0.874;2022-11-25T10:28:32;100320.56;;;17.62;
46015;BME280;36844;51.898;-0.874;2022-11-25T10:33:31;100316.69;;;17.63;
46015;BME280;36844;51.898;-0.874;2022-11-25T10:38:36;100330.56;;;17.65;
46015;BME280;36844;51.898;-0.874;2022-11-25T10:41:03;100334.38;;;17.68;
46015;BME280;36844;51.898;-0.874;2022-11-25T10:43:29;100335.16;;;17.68;
46015;BME280;36844;51.898;-0.874;2022-11-25T10:48:44;100343.59;;;17.70;
46015;BME280;36844;51.898;-0.874;2022-11-25T10:53:56;100343.97;;;17.72;
46015;BME280;36844;51.898;-0.874;2022-11-25T10:56:27;100347.44;;;17.73;
46015;BME280;36844;51.898;-0.874;2022-11-25T10:58:52;100352.84;;;17.73;
46015;BME280;36844;51.898;-0.874;2022-11-25T11:03:44;100363.19;;;17.74;
46015;BME280;36844;51.898;-0.874;2022-11-25T11:06:29;100365.13;;;17.74;
46015;BME280;36844;51.898;-0.874;2022-11-25T11:08:55;100359.75;;;17.74;
46015;BME280;36844;51.898;-0.874;2022-11-25T11:11:21;100372.81;;;17.75;
46015;BME280;36844;51.898;-0.874;2022-11-25T11:13:47;100374.34;;;17.77;
46015;BME280;36844;51.898;-0.874;2022-11-25T11:16:28;100374.34;;;17.77;
46015;BME280;36844;51.898;-0.874;2022-11-25T11:18:54;100385.50;;;17.75;
46015;BME280;36844;51.898;-0.874;2022-11-25T11:21:33;100391.28;;;17.73;
46015;BME280;36844;51.898;-0.874;2022-11-25T11:23:59;100398.19;;;17.74;
46015;BME280;36844;51.898;-0.874;2022-11-25T11:26:26;100398.97;;;17.75;
46015;BME280;36844;51.898;-0.874;2022-11-25T11:28:56;100407.06;;;17.75;
46015;BME280;36844;51.898;-0.874;2022-11-25T11:31:24;100402.44;;;17.75;
46015;BME280;36844;51.898;-0.874;2022-11-25T11:36:25;100405.91;;;17.76;
46015;BME280;36844;51.898;-0.874;2022-11-25T11:39:08;100417.47;;;17.77;
46015;BME280;36844;51.898;-0.874;2022-11-25T11:41:38;100422.84;;;17.77;
46015;BME280;36844;51.898;-0.874;2022-11-25T11:49:26;100441.69;;;17.77;
46015;BME280;36844;51.898;-0.874;2022-11-25T12:04:37;100460.91;;;17.78;
46015;BME280;36844;51.898;-0.874;2022-11-25T12:07:13;100468.97;;;17.78;
46015;BME280;36844;51.898;-0.874;2022-11-25T12:09:43;100473.22;;;17.80;
46015;BME280;36844;51.898;-0.874;2022-11-25T12:12:12;100465.16;;;17.80;
46015;BME280;36844;51.898;-0.874;2022-11-25T12:14:44;100480.53;;;17.79;
46015;BME280;36844;51.898;-0.874;2022-11-25T12:17:16;100482.88;;;17.81;
46015;BME280;36844;51.898;-0.874;2022-11-25T12:22:22;100491.28;;;17.83;
46015;BME280;36844;51.898;-0.874;2022-11-25T12:24:56;100496.69;;;17.83;
46015;BME280;36844;51.898;-0.874;2022-11-25T12:29:54;100498.22;;;17.84;
46015;BME280;36844;51.898;-0.874;2022-11-25T12:35:04;100507.84;;;17.85;
46015;BME280;36844;51.898;-0.874;2022-11-25T12:37:46;100510.53;;;17.85;
46015;BME280;36844;51.898;-0.874;2022-11-25T12:40:17;100511.31;;;17.85;
46015;BME280;36844;51.898;-0.874;2022-11-25T12:42:44;100514.78;;;17.86;
46015;BME280;36844;51.898;-0.874;2022-11-25T12:45:18;100525.16;;;17.87;
46015;BME280;36844;51.898;-0.874;2022-11-25T12:47:44;100520.91;;;17.86;
46015;BME280;36844;51.898;-0.874;2022-11-25T12:50:13;100531.31;;;17.88;
46015;BME280;36844;51.898;-0.874;2022-11-25T12:55:23;100539.41;;;17.88;
46015;BME280;36844;51.898;-0.874;2022-11-25T12:58:50;100537.44;;;17.88;
46015;BME280;36844;51.898;-0.874;2022-11-25T13:03:31;100549.00;;;17.89;
46015;BME280;36844;51.898;-0.874;2022-11-25T13:08:50;100547.84;;;17.90;
46015;BME280;36844;51.898;-0.874;2022-11-25T13:16:42;100560.16;;;17.91;
46015;BME280;36844;51.898;-0.874;2022-11-25T13:19:09;100570.94;;;17.91;
46015;BME280;36844;51.898;-0.874;2022-11-25T13:21:36;100575.19;;;17.92;
46015;BME280;36844;51.898;-0.874;2022-11-25T13:24:25;100584.00;;;17.92;
46015;BME280;36844;51.898;-0.874;2022-11-25T13:26:51;100575.19;;;17.92;
46015;BME280;36844;51.898;-0.874;2022-11-25T13:36:48;100594.03;;;17.92;
46015;BME280;36844;51.898;-0.874;2022-11-25T13:39:15;100609.03;;;17.93;
46015;BME280;36844;51.898;-0.874;2022-11-25T13:41:42;100608.28;;;17.92;
46015;BME280;36844;51.898;-0.874;2022-11-25T13:46:47;100609.44;;;17.91;
46015;BME280;36844;51.898;-0.874;2022-11-25T13:54:43;100616.38;;;17.89;
46015;BME280;36844;51.898;-0.874;2022-11-25T14:04:49;100634.06;;;17.86;
46015;BME280;36844;51.898;-0.874;2022-11-25T14:07:21;100636.00;;;17.86;
46015;BME280;36844;51.898;-0.874;2022-11-25T14:12:27;100643.72;;;17.84;
46015;BME280;36844;51.898;-0.874;2022-11-25T14:19:54;100650.66;;;17.81;
46015;BME280;36844;51.898;-0.874;2022-11-25T14:24:49;100646.78;;;17.78;
46015;BME280;36844;51.898;-0.874;2022-11-25T14:27:17;100646.44;;;17.77;
46015;BME280;36844;51.898;-0.874;2022-11-25T14:29:51;100654.50;;;17.77;
46015;BME280;36844;51.898;-0.874;2022-11-25T14:35:11;100653.75;;;17.72;
46015;BME280;36844;51.898;-0.874;2022-11-25T14:37:40;100651.41;;;17.71;
46015;BME280;36844;51.898;-0.874;2022-11-25T14:42:36;100661.44;;;17.70;
46015;BME280;36844;51.898;-0.874;2022-11-25T14:45:03;100659.94;;;17.69;
46015;BME280;36844;51.898;-0.874;2022-11-25T14:47:43;100669.94;;;17.69;
46015;BME280;36844;51.898;-0.874;2022-11-25T14:50:11;100669.94;;;17.69;
46015;BME280;36844;51.898;-0.874;2022-11-25T14:52:36;100666.44;;;17.68;
46015;BME280;36844;51.898;-0.874;2022-11-25T14:55:03;100669.94;;;17.69;
46015;BME280;36844;51.898;-0.874;2022-11-25T14:57:29;100672.63;;;17.69;
46015;BME280;36844;51.898;-0.874;2022-11-25T14:59:56;100674.91;;;17.70;
46015;BME280;36844;51.898;-0.874;2022-11-25T15:02:27;100681.06;;;17.71;
46015;BME280;36844;51.898;-0.874;2022-11-25T15:04:59;100686.06;;;17.72;
46015;BME280;36844;51.898;-0.874;2022-11-25T15:07:25;100688.38;;;17.74;
46015;BME280;36844;51.898;-0.874;2022-11-25T15:09:52;100683.75;;;17.74;
46015;BME280;36844;51.898;-0.874;2022-11-25T15:12:17;100689.16;;;17.78;
46015;BME280;36844;51.898;-0.874;2022-11-25T15:14:53;100690.66;;;17.79;
46015;BME280;36844;51.898;-0.874;2022-11-25T15:19:50;100703.78;;;17.84;
46015;BME280;36844;51.898;-0.874;2022-11-25T15:22:17;100703.38;;;17.86;
46015;BME280;36844;51.898;-0.874;2022-11-25T15:24:44;100703.75;;;17.88;
46015;BME280;36844;51.898;-0.874;2022-11-25T15:27:14;100709.53;;;17.90;
46015;BME280;36844;51.898;-0.874;2022-11-25T15:29:41;100733.00;;;17.93;
46015;BME280;36844;51.898;-0.874;2022-11-25T15:32:07;100729.91;;;17.94;
46015;BME280;36844;51.898;-0.874;2022-11-25T15:34:34;100740.69;;;17.98;
46015;BME280;36844;51.898;-0.874;2022-11-25T15:37:00;100745.69;;;17.99;